createdAt,value
2023-03-11T00:01:41.230Z,52.59
2023-03-11T00:05:02.955Z,52.59
2023-03-11T00:08:25.490Z,52.68
2023-03-11T00:11:47.342Z,52.56
2023-03-11T00:15:10.397Z,52.74
2023-03-11T00:18:32.204Z,52.58
2023-03-11T00:21:53.960Z,52.55
2023-03-11T00:25:15.662Z,52.68
2023-03-11T00:28:37.457Z,52.69
2023-03-11T00:31:59.205Z,52.65
2023-03-11T00:35:23.754Z,52.71
2023-03-11T00:38:45.481Z,52.56
2023-03-11T00:42:07.911Z,52.66
2023-03-11T00:45:29.667Z,52.68
2023-03-11T00:48:52.224Z,52.81
2023-03-11T00:52:13.988Z,52.69
2023-03-11T00:55:36.120Z,52.63
2023-03-11T00:59:01.591Z,52.80
2023-03-11T01:02:23.669Z,52.74
2023-03-11T01:05:45.394Z,52.75
2023-03-11T01:09:07.272Z,52.80
2023-03-11T01:12:28.982Z,52.75
2023-03-11T01:15:50.691Z,52.93
2023-03-11T01:19:13.097Z,52.82
2023-03-11T01:22:34.789Z,52.92
2023-03-11T01:29:40.105Z,53.02
2023-03-11T01:33:02.458Z,53.04
2023-03-11T01:36:24.196Z,53.05
2023-03-11T01:39:46.105Z,53.16
2023-03-11T01:43:36.770Z,53.18
2023-03-11T01:47:02.327Z,53.10
2023-03-11T01:50:31.927Z,53.25
2023-03-11T01:53:55.221Z,53.17
2023-03-11T01:57:20.392Z,53.24
2023-03-11T02:00:43.454Z,53.23
2023-03-11T02:04:05.129Z,53.28
2023-03-11T02:07:27.131Z,53.14
2023-03-11T02:10:50.229Z,53.20
2023-03-11T02:14:11.942Z,53.36
2023-03-11T02:17:34.425Z,53.40
2023-03-11T02:20:59.949Z,53.43
2023-03-11T02:24:34.085Z,53.29
2023-03-11T02:27:56.209Z,53.40
2023-03-11T02:31:21.161Z,53.29
2023-03-11T02:34:44.290Z,53.45
2023-03-11T02:38:06.885Z,53.33
2023-03-11T02:41:30.812Z,53.40
2023-03-11T02:45:12.743Z,53.26
2023-03-11T02:48:34.615Z,53.33
2023-03-11T02:51:57.072Z,53.41
2023-03-11T02:55:20.393Z,53.27
2023-03-11T02:58:42.126Z,53.43
2023-03-11T03:02:04.385Z,53.39
2023-03-11T03:05:26.987Z,53.40
2023-03-11T03:08:48.823Z,53.45
2023-03-11T03:12:11.050Z,53.30
2023-03-11T03:15:32.906Z,53.23
2023-03-11T03:18:55.152Z,53.41
2023-03-11T03:22:16.970Z,53.35
2023-03-11T03:25:42.943Z,53.46
2023-03-11T03:29:05.572Z,53.40
2023-03-11T03:32:27.336Z,53.23
2023-03-11T03:35:49.709Z,53.31
2023-03-11T03:39:16.137Z,53.37
2023-03-11T03:42:38.310Z,53.46
2023-03-11T03:46:03.140Z,53.33
2023-03-11T03:49:27.875Z,53.37
2023-03-11T03:52:50.177Z,53.41
2023-03-11T03:56:14.581Z,53.25
2023-03-11T03:59:36.436Z,53.17
2023-03-11T04:02:58.155Z,53.22
2023-03-11T04:06:27.753Z,53.17
2023-03-11T04:09:52.732Z,53.07
2023-03-11T04:13:14.460Z,53.23
2023-03-11T04:16:36.957Z,53.14
2023-03-11T04:20:01.944Z,53.13
2023-03-11T04:23:24.645Z,53.09
2023-03-11T04:26:46.396Z,52.96
2023-03-11T04:30:11.125Z,52.96
2023-03-11T04:33:33.182Z,52.98
2023-03-11T04:36:55.141Z,52.87
2023-03-11T04:40:21.049Z,52.78
2023-03-11T04:43:42.777Z,52.84
2023-03-11T04:47:04.581Z,52.87
2023-03-11T04:50:26.372Z,53.01
2023-03-11T04:53:48.589Z,52.84
2023-03-11T04:57:10.287Z,52.94
2023-03-11T05:00:34.277Z,52.84
2023-03-11T05:04:02.209Z,52.70
2023-03-11T05:07:24.365Z,52.73
2023-03-11T05:10:46.964Z,52.76
2023-03-11T05:14:11.652Z,52.78
2023-03-11T05:17:34.504Z,52.81
2023-03-11T05:20:56.744Z,52.68
2023-03-11T05:24:20.542Z,52.63
2023-03-11T05:27:42.996Z,52.70
2023-03-11T05:31:09.828Z,52.77
2023-03-11T05:34:32.112Z,52.74
2023-03-11T05:37:54.987Z,52.76
2023-03-11T05:41:17.085Z,52.67
2023-03-11T05:44:39.841Z,52.69
2023-03-11T05:48:01.963Z,52.48
2023-03-11T05:51:24.629Z,52.61
2023-03-11T05:54:50.435Z,52.58
2023-03-11T05:58:12.884Z,52.49
2023-03-11T06:01:35.436Z,52.54
2023-03-11T06:04:57.486Z,52.56
2023-03-11T06:08:20.710Z,52.56
2023-03-11T06:11:42.958Z,52.42
2023-03-11T06:15:07.834Z,52.55
2023-03-11T06:18:31.077Z,52.51
2023-03-11T06:21:53.422Z,52.39
2023-03-11T06:25:15.533Z,52.46
2023-03-11T06:28:37.859Z,52.34
2023-03-11T06:32:01.472Z,52.29
2023-03-11T06:35:25.790Z,52.30
2023-03-11T06:38:49.611Z,52.25
2023-03-11T06:42:11.872Z,52.33
2023-03-11T06:45:33.775Z,52.15
2023-03-11T06:48:55.660Z,52.16
2023-03-11T06:52:17.655Z,52.27
2023-03-11T06:55:39.451Z,52.21
2023-03-11T06:59:01.468Z,52.12
2023-03-11T07:02:26.660Z,52.15
2023-03-11T07:05:51.208Z,52.17
2023-03-11T07:12:48.937Z,52.08
2023-03-11T07:16:12.367Z,52.04
2023-03-11T07:19:34.732Z,52.03
2023-03-11T07:22:56.433Z,52.10
2023-03-11T07:26:18.744Z,52.04
2023-03-11T07:29:40.477Z,52.02
2023-03-11T07:33:02.111Z,52.01
2023-03-11T07:36:25.381Z,52.00
2023-03-11T07:39:47.069Z,52.01
2023-03-11T07:43:08.874Z,52.06
2023-03-11T07:46:31.558Z,52.01
2023-03-11T07:49:53.798Z,52.04
2023-03-11T07:53:16.457Z,52.01
2023-03-11T07:56:38.465Z,51.99
2023-03-11T08:00:01.246Z,52.05
2023-03-11T08:03:34.827Z,52.02
2023-03-11T08:06:56.574Z,52.04
2023-03-11T08:10:18.216Z,52.12
2023-03-11T08:13:41.136Z,52.07
2023-03-11T08:17:04.079Z,52.16
2023-03-11T08:24:04.049Z,52.22
2023-03-11T08:27:28.660Z,52.29
2023-03-11T08:30:51.721Z,52.16
2023-03-11T08:34:13.892Z,52.19
2023-03-11T08:37:35.765Z,52.25
2023-03-11T08:40:58.105Z,53.07
2023-03-11T08:44:19.762Z,54.08
2023-03-11T08:47:41.772Z,54.05
2023-03-11T08:51:10.360Z,54.01
2023-03-11T08:54:32.709Z,54.18
2023-03-11T08:57:55.704Z,53.93
2023-03-11T09:01:18.428Z,53.87
2023-03-11T09:04:40.166Z,53.77
2023-03-11T09:08:05.424Z,53.66
2023-03-11T09:11:28.347Z,53.66
2023-03-11T09:14:50.190Z,53.67
2023-03-11T09:18:13.894Z,53.57
2023-03-11T09:21:36.691Z,53.51
2023-03-11T09:24:58.439Z,53.55
2023-03-11T09:28:20.244Z,53.58
2023-03-11T09:31:42.202Z,53.52
2023-03-11T09:35:04.692Z,53.54
2023-03-11T09:38:34.722Z,53.54
2023-03-11T09:42:00.042Z,53.53
2023-03-11T09:45:28.479Z,57.25
2023-03-11T09:49:27.474Z,59.58
2023-03-11T09:53:08.853Z,60.25
2023-03-11T09:56:33.869Z,60.59
2023-03-11T10:00:02.726Z,60.51
2023-03-11T10:03:39.294Z,60.43
2023-03-11T10:07:09.778Z,60.25
2023-03-11T10:10:38.543Z,59.96
2023-03-11T10:14:37.859Z,58.42
2023-03-11T10:18:18.607Z,56.41
2023-03-11T10:21:59.422Z,55.69
2023-03-11T10:25:27.899Z,55.37
2023-03-11T10:29:15.688Z,55.13
2023-03-11T10:32:44.770Z,54.63
2023-03-11T10:36:11.839Z,57.34
2023-03-11T10:39:34.140Z,59.92
2023-03-11T10:43:01.585Z,59.45
2023-03-11T10:46:26.170Z,59.07
2023-03-11T10:49:47.982Z,58.88
2023-03-11T10:53:13.676Z,58.12
2023-03-11T10:56:38.190Z,57.66
2023-03-11T11:00:02.237Z,57.02
2023-03-11T11:03:24.418Z,54.16
2023-03-11T11:06:46.134Z,53.32
2023-03-11T11:10:19.603Z,52.29
2023-03-11T11:13:56.575Z,51.30
2023-03-11T11:17:23.605Z,50.91
2023-03-11T11:21:07.166Z,50.88
2023-03-11T11:24:30.053Z,50.39
2023-03-11T11:28:05.363Z,50.18
2023-03-11T11:31:27.817Z,49.99
2023-03-11T11:35:02.464Z,49.92
2023-03-11T11:38:25.447Z,49.89
2023-03-11T11:41:48.732Z,49.69
2023-03-11T11:45:44.028Z,49.56
2023-03-11T11:49:17.923Z,49.53
2023-03-11T11:52:51.334Z,49.66
2023-03-11T11:56:13.587Z,49.95
2023-03-11T11:59:35.858Z,50.03
2023-03-11T12:03:19.335Z,50.21
2023-03-11T12:06:55.522Z,50.20
2023-03-11T12:10:35.030Z,50.59
2023-03-11T12:14:21.555Z,51.04
2023-03-11T12:17:45.320Z,50.95
2023-03-11T12:21:23.819Z,51.15
2023-03-11T12:24:51.788Z,51.23
2023-03-11T12:28:19.479Z,51.45
2023-03-11T12:31:42.232Z,51.86
2023-03-11T12:35:19.384Z,51.77
2023-03-11T12:38:46.695Z,51.65
2023-03-11T12:42:11.752Z,51.14
2023-03-11T12:45:53.406Z,50.92
2023-03-11T12:49:15.133Z,50.66
2023-03-11T12:52:52.781Z,50.51
2023-03-11T12:56:35.346Z,50.33
2023-03-11T13:00:12.607Z,50.09
2023-03-11T13:04:04.390Z,49.80
2023-03-11T13:07:49.085Z,49.46
2023-03-11T13:11:37.128Z,49.51
2023-03-11T13:15:20.389Z,49.18
2023-03-11T13:18:48.038Z,49.23
2023-03-11T13:23:02.212Z,49.07
2023-03-11T13:26:35.541Z,49.04
2023-03-11T13:30:18.482Z,49.23
2023-03-11T13:33:52.403Z,49.01
2023-03-11T13:37:40.809Z,49.11
2023-03-11T13:41:03.358Z,49.02
2023-03-11T13:44:30.640Z,49.03
2023-03-11T13:51:44.250Z,48.96
2023-03-11T13:55:08.017Z,48.93
2023-03-11T13:58:29.808Z,48.87
2023-03-11T14:01:53.267Z,48.87
2023-03-11T14:05:23.351Z,48.92
2023-03-11T14:08:56.831Z,49.00
2023-03-11T14:12:19.185Z,49.04
2023-03-11T14:16:01.033Z,48.87
2023-03-11T14:19:23.507Z,48.99
2023-03-11T14:22:54.381Z,49.22
2023-03-11T14:26:22.674Z,48.88
2023-03-11T14:29:45.421Z,49.01
2023-03-11T14:33:22.758Z,49.08
2023-03-11T14:36:46.050Z,49.05
2023-03-11T14:40:27.667Z,48.92
2023-03-11T14:43:52.446Z,48.95
2023-03-11T14:47:59.640Z,48.79
2023-03-11T14:51:25.755Z,48.71
2023-03-11T14:54:49.624Z,48.74
2023-03-11T14:58:32.436Z,48.70
2023-03-11T15:01:56.943Z,48.39
2023-03-11T15:05:28.235Z,48.50
2023-03-11T15:09:10.094Z,48.58
2023-03-11T15:12:34.948Z,48.26
2023-03-11T15:16:05.343Z,48.49
2023-03-11T15:19:29.903Z,48.59
2023-03-11T15:23:01.606Z,48.49
2023-03-11T15:26:26.364Z,48.51
2023-03-11T15:29:52.693Z,48.34
2023-03-11T15:33:23.180Z,48.21
2023-03-11T15:36:47.808Z,48.08
2023-03-11T15:40:44.105Z,48.29
2023-03-11T15:44:21.870Z,48.07
2023-03-11T15:47:44.285Z,47.95
2023-03-11T15:51:06.131Z,48.04
2023-03-11T15:54:29.381Z,48.23
2023-03-11T15:57:53.213Z,48.06
2023-03-11T16:01:15.403Z,47.87
2023-03-11T16:04:37.161Z,48.05
2023-03-11T16:07:59.212Z,48.03
2023-03-11T16:11:21.111Z,47.96
2023-03-11T16:14:42.883Z,47.82
2023-03-11T16:18:09.400Z,47.85
2023-03-11T16:21:36.126Z,47.81
2023-03-11T16:25:02.266Z,47.88
2023-03-11T16:28:26.291Z,47.79
2023-03-11T16:31:49.268Z,47.78
2023-03-11T16:35:14.346Z,47.76
2023-03-11T16:38:50.237Z,47.80
2023-03-11T16:42:12.009Z,47.91
2023-03-11T16:45:33.777Z,47.94
2023-03-11T16:48:56.101Z,47.91
2023-03-11T16:52:20.887Z,47.67
2023-03-11T16:55:46.059Z,47.88
2023-03-11T16:59:07.760Z,47.75
2023-03-11T17:02:30.186Z,47.85
2023-03-11T17:06:01.086Z,47.96
2023-03-11T17:09:24.166Z,47.88
2023-03-11T17:12:46.463Z,47.97
2023-03-11T17:16:08.288Z,47.93
2023-03-11T17:19:31.305Z,47.85
2023-03-11T17:22:53.356Z,48.06
2023-03-11T17:26:16.926Z,48.15
2023-03-11T17:29:38.700Z,47.98
2023-03-11T17:33:03.146Z,48.05
2023-03-11T17:36:25.638Z,48.10
2023-03-11T17:39:47.907Z,48.14
2023-03-11T17:43:09.561Z,48.16
2023-03-11T17:46:31.380Z,48.02
2023-03-11T17:49:54.086Z,48.19
2023-03-11T17:53:15.820Z,48.05
2023-03-11T17:56:37.624Z,48.15
2023-03-11T18:00:04.370Z,48.17
2023-03-11T18:03:29.164Z,48.12
2023-03-11T18:06:52.743Z,48.20
2023-03-11T18:10:16.061Z,48.17
2023-03-11T18:13:38.585Z,48.19
2023-03-11T18:17:00.339Z,48.06
2023-03-11T18:20:22.080Z,48.09
2023-03-11T18:23:44.541Z,48.23
2023-03-11T18:27:06.473Z,48.30
2023-03-11T18:30:28.246Z,48.18
2023-03-11T18:33:54.775Z,48.15
2023-03-11T18:37:16.482Z,48.31
2023-03-11T18:40:38.791Z,48.24
2023-03-11T18:44:01.347Z,48.17
2023-03-11T18:47:23.108Z,48.09
2023-03-11T18:50:51.624Z,48.24
2023-03-11T18:54:13.446Z,48.16
2023-03-11T18:57:35.192Z,48.19
2023-03-11T19:01:04.541Z,48.17
2023-03-11T19:04:28.584Z,48.21
2023-03-11T19:07:50.289Z,48.10
2023-03-11T19:11:15.707Z,48.19
2023-03-11T19:14:37.440Z,48.23
2023-03-11T19:18:06.564Z,48.14
2023-03-11T19:21:29.122Z,48.12
2023-03-11T19:24:53.606Z,48.19
2023-03-11T19:28:15.335Z,48.08
2023-03-11T19:31:37.137Z,48.11
2023-03-11T19:34:59.463Z,47.99
2023-03-11T19:38:22.124Z,48.08
2023-03-11T19:41:43.786Z,48.03
2023-03-11T19:45:06.273Z,48.05
2023-03-11T19:48:28.214Z,48.02
2023-03-11T19:51:52.049Z,48.05
2023-03-11T19:55:14.057Z,47.97
2023-03-11T19:58:36.443Z,48.01
2023-03-11T20:01:58.363Z,48.03
2023-03-11T20:05:20.258Z,48.00
2023-03-11T20:08:52.295Z,48.01
2023-03-11T20:12:14.115Z,48.03
2023-03-11T20:15:36.379Z,48.09
2023-03-11T20:18:58.192Z,48.26
2023-03-11T20:22:20.340Z,48.16
2023-03-11T20:25:42.638Z,48.17
2023-03-11T20:29:05.373Z,48.27
2023-03-11T20:32:29.285Z,48.33
2023-03-11T20:35:51.054Z,48.20
2023-03-11T20:39:13.011Z,48.27
2023-03-11T20:42:35.792Z,48.40
2023-03-11T20:45:58.200Z,48.38
2023-03-11T20:49:20.009Z,48.35
2023-03-11T20:52:42.037Z,48.23
2023-03-11T20:56:19.408Z,48.38
2023-03-11T20:59:42.141Z,48.30
2023-03-11T21:03:04.143Z,48.26
2023-03-11T21:06:31.385Z,48.33
2023-03-11T21:09:57.644Z,48.30
2023-03-11T21:13:20.052Z,48.20
2023-03-11T21:16:42.865Z,48.24
2023-03-11T21:20:06.540Z,48.16
2023-03-11T21:23:28.429Z,48.11
2023-03-11T21:26:52.570Z,48.00
2023-03-11T21:30:14.699Z,48.16
2023-03-11T21:33:37.802Z,48.08
2023-03-11T21:36:59.995Z,48.09
2023-03-11T21:40:24.684Z,48.04
2023-03-11T21:43:47.205Z,47.91
2023-03-11T21:47:09.835Z,47.96
2023-03-11T21:50:31.678Z,47.89
2023-03-11T21:53:56.726Z,47.93
2023-03-11T21:57:18.900Z,47.86
2023-03-11T22:00:40.725Z,47.95
2023-03-11T22:04:03.906Z,47.98
2023-03-11T22:07:25.932Z,47.86
2023-03-11T22:10:48.147Z,47.87
2023-03-11T22:14:09.915Z,47.95
2023-03-11T22:17:31.886Z,48.00
2023-03-11T22:20:54.056Z,47.88
2023-03-11T22:24:16.535Z,47.87
2023-03-11T22:27:40.971Z,47.85
2023-03-11T22:31:12.806Z,47.88
2023-03-11T22:34:34.540Z,48.14
2023-03-11T22:37:56.655Z,50.10
2023-03-11T22:41:20.334Z,50.19
2023-03-11T22:44:42.501Z,50.29
2023-03-11T22:48:04.350Z,50.56
2023-03-11T22:51:26.252Z,50.69
2023-03-11T22:54:48.168Z,50.77
2023-03-11T22:58:10.716Z,50.63
2023-03-11T23:01:33.450Z,50.50
2023-03-11T23:04:55.175Z,50.37
2023-03-11T23:08:16.987Z,50.31
2023-03-11T23:11:38.842Z,50.25
2023-03-11T23:15:02.270Z,50.18
2023-03-11T23:18:24.272Z,50.24
2023-03-11T23:21:46.061Z,50.10
2023-03-11T23:25:12.508Z,50.04
2023-03-11T23:28:34.857Z,49.92
2023-03-11T23:31:56.980Z,49.86
2023-03-11T23:35:22.066Z,49.87
2023-03-11T23:38:44.420Z,49.64
2023-03-11T23:42:18.647Z,49.70
2023-03-11T23:45:46.538Z,49.58
2023-03-11T23:49:08.239Z,49.54
2023-03-11T23:52:29.915Z,49.51
2023-03-11T23:55:52.157Z,49.51
2023-03-11T23:59:13.878Z,49.27
